.
WxDataArchive / Data Records for 2007-01-04
2007-01-03 January 2007 2007-01-05

Data Records for Thursday, 04 January 2007

Time	Temp	Chill	HIndex	Humid	Dewpt	 Wind 	HiWind	WindDir	Rain 	Barom 
-----	----	-----	------	-----	-----	------	------	-------	-----	----- 
00:00	40.6	40.6	40.6	81	35.2	1	4	248	0.00	30.028 
00:05	40.6	40.6	40.6	81	35.2	1	4	270	0.00	30.028 
00:10	40.8	40.8	40.8	81	35.4	1	4	248	0.00	30.028 
00:15	40.9	40.9	40.9	81	35.5	2	5	248	0.00	30.015 
00:20	41.1	41.1	41.1	80	35.4	1	4	248	0.00	30.015 
00:25	41.1	41.1	41.1	80	35.4	1	4	248	0.00	30.015 
00:30	41.2	41.2	41.2	80	35.5	1	3	248	0.00	30.010 
00:35	41.3	41.3	41.3	79	35.3	2	5	248	0.00	30.010 
00:40	41.5	41.5	41.5	79	35.5	3	6	270	0.00	30.010 
00:45	41.6	41.6	41.6	79	35.6	2	5	248	0.00	30.002 
00:50	41.6	41.6	41.6	79	35.6	2	5	248	0.00	30.002 
00:55	41.6	41.6	41.6	78	35.3	2	6	248	0.00	30.002 
01:00	41.6	41.6	41.6	78	35.3	2	5	248	0.00	29.996 
01:05	41.5	41.5	41.5	78	35.2	2	5	248	0.00	29.996 
01:10	41.5	41.5	41.5	79	35.5	2	7	248	0.00	29.996 
01:15	41.5	41.5	41.5	79	35.5	2	5	248	0.00	29.992 
01:20	41.3	41.3	41.3	79	35.3	2	6	248	0.00	29.992 
01:25	41.3	41.3	41.3	79	35.3	2	7	248	0.00	29.992 
01:30	41.2	41.2	41.2	79	35.2	2	9	248	0.00	29.994 
01:35	41.2	41.2	41.2	79	35.2	2	6	248	0.00	29.994 
01:40	41.2	41.2	41.2	79	35.2	3	9	248	0.00	29.994 
01:45	41.1	41.1	41.1	80	35.4	2	6	248	0.00	29.991 
01:50	41.1	41.1	41.1	80	35.4	2	4	248	0.00	29.991 
01:55	40.9	40.9	40.9	80	35.2	1	4	248	0.00	29.991 
02:00	40.9	40.9	40.9	80	35.2	2	5	248	0.00	29.988 
02:05	41.1	41.1	41.1	80	35.4	2	7	248	0.00	29.988 
02:10	41.1	41.1	41.1	80	35.4	1	3	248	0.00	29.988 
02:15	40.9	40.9	40.9	81	35.5	2	5	248	0.00	29.982 
02:20	40.9	40.9	40.9	81	35.5	2	6	248	0.00	29.982 
02:25	40.8	40.8	40.8	81	35.4	2	5	248	0.00	29.982 
02:30	40.8	40.8	40.8	81	35.4	3	7	248	0.00	29.980 
02:35	40.8	40.8	40.8	81	35.4	2	6	248	0.00	29.980 
02:40	40.6	40.6	40.6	81	35.2	2	5	248	0.00	29.980 
02:45	40.5	40.5	40.5	81	35.1	2	6	248	0.00	29.984 
02:50	40.3	40.3	40.3	81	34.9	2	5	248	0.00	29.984 
02:55	40.3	40.3	40.3	82	35.2	3	10	248	0.00	29.984 
03:00	40.3	40.3	40.3	81	34.9	2	10	248	0.00	29.991 
03:05	40.3	40.3	40.3	82	35.2	3	9	248	0.00	29.991 
03:10	40.3	40.3	40.3	81	34.9	3	6	248	0.00	29.991 
03:15	40.2	40.2	40.2	81	34.8	2	4	248	0.00	29.982 
03:20	40.2	40.2	40.2	82	35.2	3	10	248	0.00	29.982 
03:25	40.2	40.2	40.2	82	35.2	2	4	248	0.00	29.982 
03:30	40.2	40.2	40.2	82	35.2	2	4	248	0.00	29.985 
03:35	40.1	40.1	40.1	82	35.1	1	4	248	0.00	29.985 
03:40	40.1	40.1	40.1	82	35.1	2	4	248	0.00	29.985 
03:45	39.9	39.9	39.9	82	34.9	1	4	248	0.00	29.980 
03:50	39.8	39.8	39.8	82	34.8	1	6	248	0.00	29.980 
03:55	39.8	39.8	39.8	82	34.8	2	5	248	0.00	29.980 
04:00	39.8	39.8	39.8	82	34.8	1	5	225	0.00	29.974 
04:05	39.8	39.8	39.8	82	34.8	1	4	248	0.00	29.974 
04:10	39.6	39.6	39.6	82	34.6	1	4	225	0.00	29.974 
04:15	39.5	39.5	39.5	83	34.8	1	3	248	0.00	29.964 
04:20	39.5	39.5	39.5	83	34.8	1	5	248	0.00	29.964 
04:25	39.3	39.3	39.3	83	34.6	1	3	248	0.00	29.964 
04:30	39.2	39.2	39.2	83	34.5	1	5	248	0.00	29.963 
04:35	39.2	39.2	39.2	83	34.5	1	4	225	0.00	29.963 
04:40	39.2	39.2	39.2	84	34.8	1	2	225	0.00	29.963 
04:45	39.2	39.2	39.2	84	34.8	1	4	248	0.00	29.962 
04:50	39.2	39.2	39.2	84	34.8	1	5	248	0.00	29.962 
04:55	39.1	39.1	39.1	84	34.7	0	4	248	0.00	29.962 
05:00	38.9	38.9	38.9	84	34.5	1	4	248	0.00	29.962 
05:05	38.8	38.8	38.8	84	34.4	0	4	248	0.00	29.962 
05:10	38.6	38.6	38.6	84	34.2	1	4	248	0.00	29.962 
05:15	38.6	38.6	38.6	84	34.2	1	5	248	0.00	29.963 
05:20	38.5	38.5	38.5	85	34.4	0	2	248	0.00	29.963 
05:25	38.5	38.5	38.5	85	34.4	1	3	248	0.00	29.963 
05:30	38.3	38.3	38.3	85	34.2	1	3	248	0.00	29.955 
05:35	38.3	38.3	38.3	85	34.2	1	5	248	0.00	29.955 
05:40	38.3	38.3	38.3	85	34.2	1	5	225	0.00	29.955 
05:45	38.5	38.5	38.5	85	34.4	1	5	225	0.00	29.958 
05:50	38.3	38.3	38.3	85	34.2	0	2	270	0.00	29.958 
05:55	38.2	38.2	38.2	85	34.1	0	2	270	0.00	29.958 
06:00	38.0	38.0	38.0	85	33.9	0	3	292	0.00	29.956 
06:05	38.0	38.0	38.0	86	34.2	0	2	292	0.00	29.956 
06:10	38.0	38.0	38.0	86	34.2	0	2	292	0.00	29.956 
06:15	38.0	38.0	38.0	86	34.2	1	2	292	0.00	29.964 
06:20	38.0	38.0	38.0	86	34.2	1	3	270	0.00	29.964 
06:25	38.2	38.2	38.2	86	34.4	1	6	248	0.00	29.964 
06:30	38.2	38.2	38.2	86	34.4	1	3	248	0.00	29.971 
06:35	38.3	38.3	38.3	86	34.5	2	6	248	0.00	29.971 
06:40	38.5	38.5	38.5	86	34.7	1	5	248	0.00	29.971 
06:45	38.5	38.5	38.5	85	34.4	1	4	248	0.00	29.969 
06:50	38.6	38.6	38.6	85	34.5	2	4	248	0.00	29.969 
06:55	38.6	38.6	38.6	85	34.5	2	5	248	0.00	29.969 
07:00	38.6	38.6	38.6	85	34.5	1	4	248	0.00	29.975 
07:05	38.8	38.8	38.8	85	34.7	1	5	248	0.00	29.975 
07:10	38.9	38.9	38.9	85	34.8	1	5	248	0.00	29.975 
07:15	39.2	39.2	39.2	84	34.8	2	4	248	0.00	29.976 
07:20	39.2	39.2	39.2	84	34.8	1	9	248	0.00	29.976 
07:25	39.3	39.3	39.3	84	34.9	1	4	270	0.00	29.976 
07:30	39.5	39.5	39.5	84	35.1	2	6	248	0.00	29.969 
07:35	39.8	39.8	39.8	83	35.1	2	5	270	0.00	29.969 
07:40	39.9	39.9	39.9	83	35.2	2	4	248	0.00	29.969 
07:45	40.1	40.1	40.1	83	35.4	1	5	248	0.00	29.963 
07:50	40.1	40.1	40.1	82	35.1	2	5	248	0.00	29.963 
07:55	40.2	40.2	40.2	82	35.2	2	5	248	0.00	29.963 
08:00	40.5	40.5	40.5	82	35.4	3	6	248	0.00	29.954 
08:05	40.6	40.6	40.6	81	35.2	3	7	248	0.00	29.954 
08:10	40.8	40.8	40.8	81	35.4	2	9	248	0.00	29.954 
08:15	40.8	40.8	40.8	81	35.4	2	5	248	0.00	29.942 
08:20	40.6	40.6	40.6	81	35.2	1	4	248	0.00	29.942 
08:25	40.6	40.6	40.6	81	35.2	1	6	248	0.00	29.942 
08:30	40.6	40.6	40.6	81	35.2	2	10	248	0.00	29.935 
08:35	40.8	40.8	40.8	81	35.4	2	7	248	0.00	29.935 
08:40	40.9	40.9	40.9	81	35.5	2	6	248	0.00	29.935 
08:45	41.2	41.2	41.2	81	35.8	1	5	248	0.00	29.932 
08:50	41.3	41.3	41.3	81	35.9	2	5	270	0.00	29.932 
08:55	41.6	41.6	41.6	81	36.2	2	7	248	0.00	29.932 
09:00	41.8	41.8	41.8	80	36.1	3	10	248	0.00	29.937 
09:05	41.9	41.9	41.9	80	36.2	1	5	248	0.00	29.937 
09:10	42.2	42.2	42.2	80	36.5	2	6	248	0.00	29.937 
09:15	42.5	42.5	42.5	79	36.5	2	7	248	0.00	29.940 
09:20	42.8	42.8	42.8	79	36.7	2	6	248	0.00	29.940 
09:25	43.1	43.1	43.1	78	36.7	2	5	248	0.00	29.940 
09:30	43.3	43.3	43.3	77	36.6	3	9	248	0.00	29.951 
09:35	43.5	41.4	43.5	77	36.8	4	10	248	0.00	29.951 
09:40	43.8	43.8	43.8	76	36.7	3	6	270	0.00	29.951 
09:45	44.1	42.1	44.1	76	37.0	4	9	248	0.00	29.949 
09:50	44.2	42.2	44.2	75	36.8	4	9	248	0.00	29.949 
09:55	44.5	44.5	44.5	75	37.1	3	7	248	0.00	29.949 
10:00	44.6	44.6	44.6	75	37.2	3	7	248	0.00	29.949 
10:05	44.8	44.8	44.8	74	37.0	3	10	248	0.00	29.949 
10:10	45.1	43.2	45.1	74	37.3	4	9	248	0.00	29.949 
10:15	45.2	45.2	45.2	74	37.4	3	7	248	0.00	29.947 
10:20	45.4	45.4	45.4	73	37.3	3	9	248	0.00	29.947 
10:25	45.5	43.7	45.5	73	37.4	4	10	248	0.00	29.947 
10:30	45.8	45.8	45.8	73	37.6	3	9	248	0.00	29.945 
10:35	46.1	44.4	46.1	71	37.2	4	10	248	0.00	29.945 
10:40	46.2	44.5	46.2	71	37.3	4	9	270	0.00	29.945 
10:45	46.4	44.7	46.4	71	37.5	4	10	270	0.00	29.939 
10:50	46.5	44.8	46.5	70	37.3	4	12	248	0.00	29.939 
10:55	46.7	45.1	46.7	70	37.4	4	7	248	0.00	29.939 
11:00	46.7	46.7	46.7	70	37.4	3	7	248	0.00	29.940 
11:05	46.8	46.8	46.8	69	37.2	3	6	270	0.00	29.940 
11:10	46.8	46.8	46.8	69	37.2	2	6	248	0.00	29.940 
11:15	46.8	46.8	46.8	70	37.5	2	6	248	0.00	29.931 
11:20	46.8	46.8	46.8	69	37.2	3	6	270	0.00	29.931 
11:25	46.8	46.8	46.8	70	37.5	3	10	248	0.00	29.931 
11:30	47.0	47.0	47.0	70	37.7	3	7	248	0.00	29.920 
11:35	47.0	47.0	47.0	70	37.7	2	7	248	0.00	29.920 
11:40	47.0	47.0	47.0	69	37.4	3	10	248	0.00	29.920 
11:45	47.1	45.5	47.1	69	37.5	4	9	248	0.00	29.915 
11:50	47.1	47.1	47.1	69	37.5	2	7	248	0.00	29.915 
11:55	47.3	47.3	47.3	69	37.7	3	10	248	0.00	29.915 
12:00	47.3	47.3	47.3	69	37.7	2	6	248	0.00	29.899 
12:05	47.3	47.3	47.3	69	37.7	2	6	248	0.00	29.899 
12:10	47.3	47.3	47.3	69	37.7	1	3	270	0.00	29.899 
12:15	47.4	47.4	47.4	70	38.1	1	3	248	0.00	29.894 
12:20	47.3	47.3	47.3	71	38.4	1	4	270	0.00	29.894 
12:25	47.3	47.3	47.3	70	38.0	2	7	270	0.00	29.894 
12:30	47.3	47.3	47.3	70	38.0	2	5	270	0.00	29.883 
12:35	47.3	47.3	47.3	70	38.0	2	6	248	0.00	29.883 
12:40	47.4	47.4	47.4	70	38.1	2	8	248	0.00	29.883 
12:45	47.4	47.4	47.4	70	38.1	2	7	270	0.00	29.878 
12:50	47.3	47.3	47.3	71	38.4	1	7	338	0.00	29.878 
12:55	47.4	47.4	47.4	70	38.1	2	6	248	0.00	29.878 
13:00	47.4	47.4	47.4	70	38.1	2	9	292	0.00	29.868 
13:05	47.4	47.4	47.4	70	38.1	2	4	248	0.00	29.868 
13:10	47.4	47.4	47.4	70	38.1	1	6	270	0.00	29.868 
13:15	47.4	47.4	47.4	71	38.5	2	5	112	0.00	29.864 
13:20	47.4	47.4	47.4	70	38.1	2	5	270	0.00	29.864 
13:25	47.6	47.6	47.6	71	38.7	2	4	90	0.00	29.864 
13:30	47.6	47.6	47.6	70	38.3	2	5	270	0.00	29.851 
13:35	47.6	47.6	47.6	71	38.7	1	4	248	0.00	29.851 
13:40	47.7	47.7	47.7	70	38.4	1	4	90	0.00	29.851 
13:45	47.7	47.7	47.7	70	38.4	1	5	270	0.00	29.848 
13:50	47.9	47.9	47.9	71	39.0	1	3	248	0.00	29.848 
13:55	47.9	47.9	47.9	71	39.0	2	5	248	0.00	29.848 
14:00	48.0	48.0	48.0	71	39.1	2	6	270	0.00	29.841 
14:05	48.0	48.0	48.0	71	39.1	2	7	315	0.00	29.841 
14:10	48.2	48.2	48.2	70	38.9	2	6	90	0.00	29.841 
14:15	48.3	48.3	48.3	70	39.0	3	7	248	0.00	29.844 
14:20	48.6	48.6	48.6	69	38.9	2	9	270	0.00	29.844 
14:25	48.8	48.8	48.8	69	39.1	2	6	248	0.00	29.844 
14:30	48.9	48.9	48.9	69	39.2	2	11	248	0.00	29.834 
14:35	48.9	48.9	48.9	69	39.2	2	6	248	0.00	29.834 
14:40	49.1	49.1	49.1	68	39.0	3	7	248	0.00	29.834 
14:45	49.2	49.2	49.2	67	38.7	2	6	248	0.00	29.832 
14:50	49.4	49.4	49.4	68	39.3	3	10	248	0.00	29.832 
14:55	49.4	48.2	49.4	67	38.9	4	10	270	0.00	29.832 
15:00	49.2	49.2	49.2	69	39.5	2	6	248	0.00	29.832 
15:05	49.1	49.1	49.1	69	39.4	3	9	248	0.00	29.832 
15:10	48.8	48.8	48.8	72	40.2	2	5	248	0.00	29.832 
15:15	48.5	48.5	48.5	73	40.2	1	5	248	0.01	29.833 
15:20	48.0	48.0	48.0	76	40.8	1	6	248	0.00	29.833 
15:25	47.7	47.7	47.7	77	40.8	2	9	248	0.00	29.833 
15:30	47.3	47.3	47.3	79	41.1	2	4	248	0.01	29.835 
15:35	47.0	47.0	47.0	81	41.5	1	3	248	0.01	29.835 
15:40	46.7	46.7	46.7	83	41.8	0	2	248	0.00	29.835 
15:45	46.4	46.4	46.4	83	41.5	1	5	248	0.00	29.833 
15:50	46.2	46.2	46.2	84	41.6	1	4	112	0.01	29.833 
15:55	46.2	46.2	46.2	85	41.9	1	5	202	0.00	29.833 
16:00	46.1	46.1	46.1	86	42.1	1	6	270	0.00	29.831 
16:05	46.0	46.0	46.0	86	42.0	0	2	248	0.01	29.831 
16:10	46.0	46.0	46.0	87	42.4	1	3	45	0.00	29.831 
16:15	46.0	46.0	46.0	87	42.4	1	3	68	0.00	29.822 
16:20	45.8	45.8	45.8	87	42.2	1	4	270	0.00	29.822 
16:25	45.8	45.8	45.8	87	42.2	1	4	68	0.00	29.822 
16:30	46.0	46.0	46.0	87	42.4	1	3	90	0.00	29.815 
16:35	46.0	46.0	46.0	87	42.4	1	3	90	0.00	29.815 
16:40	46.0	46.0	46.0	87	42.4	1	4	135	0.01	29.815 
16:45	46.0	46.0	46.0	87	42.4	1	3	135	0.00	29.813 
16:50	46.0	46.0	46.0	87	42.4	1	3	90	0.00	29.813 
16:55	46.0	46.0	46.0	87	42.4	2	4	90	0.00	29.813 
17:00	46.0	46.0	46.0	87	42.4	2	4	90	0.01	29.806 
17:05	46.0	46.0	46.0	87	42.4	2	4	112	0.00	29.806 
17:10	46.0	46.0	46.0	87	42.4	2	4	90	0.00	29.806 
17:15	45.8	45.8	45.8	88	42.5	1	3	112	0.00	29.807 
17:20	46.0	46.0	46.0	87	42.4	2	6	90	0.01	29.807 
17:25	46.0	46.0	46.0	88	42.6	2	3	90	0.00	29.807 
17:30	46.0	46.0	46.0	88	42.6	2	5	90	0.00	29.804 
17:35	46.0	46.0	46.0	87	42.4	2	6	112	0.00	29.804 
17:40	46.0	46.0	46.0	88	42.6	1	4	248	0.00	29.804 
17:45	46.0	46.0	46.0	88	42.6	1	5	225	0.00	29.817 
17:50	45.8	45.8	45.8	88	42.5	1	4	225	0.01	29.817 
17:55	45.8	45.8	45.8	88	42.5	1	6	315	0.00	29.817 
18:00	46.0	46.0	46.0	88	42.6	2	5	248	0.01	29.821 
18:05	46.0	46.0	46.0	88	42.6	2	7	248	0.01	29.821 
18:10	45.8	45.8	45.8	88	42.5	2	5	270	0.01	29.821 
18:15	45.8	45.8	45.8	88	42.5	2	7	248	0.00	29.816 
18:20	45.7	45.7	45.7	89	42.6	2	5	270	0.00	29.816 
18:25	45.7	45.7	45.7	89	42.6	2	7	248	0.01	29.816 
18:30	45.7	45.7	45.7	90	42.9	2	5	248	0.00	29.816 
18:35	45.5	45.5	45.5	90	42.7	2	7	270	0.00	29.816 
18:40	45.5	45.5	45.5	90	42.7	2	9	270	0.01	29.816 
18:45	45.5	45.5	45.5	90	42.7	1	3	248	0.00	29.806 
18:50	45.5	45.5	45.5	90	42.7	1	3	248	0.00	29.806 
18:55	45.5	45.5	45.5	90	42.7	1	6	225	0.00	29.806 
19:00	45.5	45.5	45.5	90	42.7	1	4	90	0.00	29.798 
19:05	45.7	45.7	45.7	90	42.9	2	6	90	0.00	29.798 
19:10	45.8	45.8	45.8	88	42.5	2	6	90	0.01	29.798 
19:15	45.8	45.8	45.8	88	42.5	2	7	315	0.00	29.788 
19:20	46.0	46.0	46.0	88	42.6	2	7	45	0.00	29.788 
19:25	46.1	46.1	46.1	87	42.4	2	8	270	0.00	29.788 
19:30	46.1	46.1	46.1	87	42.4	2	5	270	0.01	29.785 
19:35	46.1	46.1	46.1	87	42.4	2	5	68	0.00	29.785 
19:40	46.1	46.1	46.1	87	42.4	2	6	90	0.00	29.785 
19:45	46.1	46.1	46.1	87	42.4	2	8	90	0.01	29.768 
19:50	46.2	44.5	46.2	87	42.5	4	11	90	0.00	29.768 
19:55	46.4	46.4	46.4	87	42.7	3	9	90	0.01	29.768 
20:00	46.5	46.5	46.5	87	42.8	3	6	90	0.00	29.752 
20:05	46.5	46.5	46.5	88	43.1	3	11	90	0.01	29.752 
20:10	46.5	46.5	46.5	89	43.4	3	5	90	0.01	29.752 
20:15	46.4	46.4	46.4	89	43.3	3	9	90	0.00	29.734 
20:20	46.4	46.4	46.4	89	43.3	2	5	68	0.00	29.734 
20:25	46.2	46.2	46.2	90	43.4	2	5	112	0.00	29.734 
20:30	46.2	46.2	46.2	89	43.1	2	6	112	0.00	29.735 
20:35	46.2	46.2	46.2	89	43.1	2	6	112	0.00	29.735 
20:40	46.4	46.4	46.4	89	43.3	2	5	112	0.00	29.735 
20:45	46.5	46.5	46.5	89	43.4	2	4	68	0.00	29.735 
20:50	46.7	46.7	46.7	89	43.6	2	5	68	0.00	29.735 
20:55	46.8	46.8	46.8	88	43.4	2	5	90	0.00	29.735 
21:00	47.1	47.1	47.1	89	44.0	1	4	68	0.00	29.723 
21:05	47.3	47.3	47.3	89	44.2	2	6	248	0.01	29.723 
21:10	47.4	47.4	47.4	90	44.6	1	3	112	0.00	29.723 
21:15	47.4	47.4	47.4	91	44.9	3	5	90	0.00	29.704 
21:20	47.4	47.4	47.4	91	44.9	2	5	90	0.01	29.704 
21:25	47.6	47.6	47.6	92	45.4	2	6	90	0.00	29.704 
21:30	47.6	47.6	47.6	93	45.7	1	4	112	0.01	29.699 
21:35	47.4	47.4	47.4	94	45.8	1	4	68	0.00	29.699 
21:40	47.4	47.4	47.4	94	45.8	1	4	90	0.01	29.699 
21:45	47.4	47.4	47.4	94	45.8	1	5	90	0.00	29.686 
21:50	47.4	47.4	47.4	95	46.0	1	5	90	0.01	29.686 
21:55	47.4	47.4	47.4	95	46.0	1	5	112	0.01	29.686 
22:00	47.4	47.4	47.4	95	46.0	1	3	112	0.02	29.672 
22:05	47.4	47.4	47.4	95	46.0	1	3	112	0.00	29.672 
22:10	47.4	47.4	47.4	96	46.3	2	5	90	0.01	29.672 
22:15	47.6	47.6	47.6	96	46.5	2	4	112	0.01	29.659 
22:20	47.7	47.7	47.7	96	46.6	2	4	90	0.00	29.659 
22:25	47.9	47.9	47.9	96	46.8	2	5	112	0.02	29.659 
22:30	47.9	47.9	47.9	96	46.8	2	4	90	0.02	29.644 
22:35	48.2	48.2	48.2	96	47.1	2	4	112	0.00	29.644 
22:40	48.3	48.3	48.3	96	47.2	2	4	112	0.01	29.644 
22:45	48.5	48.5	48.5	96	47.4	1	4	292	0.01	29.648 
22:50	48.8	48.8	48.8	96	47.7	3	7	248	0.01	29.648 
22:55	48.9	48.9	48.9	97	48.1	2	7	112	0.00	29.648 
23:00	49.1	49.1	49.1	97	48.3	3	9	248	0.00	29.653 
23:05	49.2	49.2	49.2	97	48.4	2	6	248	0.01	29.653 
23:10	49.5	49.5	49.5	97	48.7	3	7	248	0.01	29.653 
23:15	49.8	49.8	49.8	97	49.0	2	6	248	0.01	29.653 
23:20	49.9	49.9	49.9	97	49.1	2	5	248	0.01	29.653 
23:25	50.1	50.1	50.1	97	49.3	1	4	248	0.01	29.653 
23:30	50.2	50.2	50.2	97	49.4	2	7	248	0.01	29.651 
23:35	50.4	50.4	50.4	97	49.6	3	6	248	0.01	29.651 
23:40	50.7	50.7	50.7	97	49.9	3	7	248	0.00	29.651 
23:45	51.0	51.0	51.0	97	50.2	3	7	248	0.01	29.647 
23:50	51.1	51.1	51.1	97	50.3	2	7	248	0.00	29.647 
23:55	51.4	51.4	51.4	97	50.6	3	7	248	0.00	29.647 

CoCoRaHS
IN-AL-39
A2 Web Hosting
Creative Commons License
GoDaddy
Look for:

loaded 2017-10-18 07:17:21 • last modified 2010-11-18 10:43:29
Privacy PolicyDisclaimer
• wx.awcolley.com is powered by PmWiki v.2002016 •
• all content (unless otherwise noted) © 2017 A W Colley